Time;durP1;ratioP1;P1;durP2;ratioP2;P2;SDS_P1;SDS_P2;PMS_P1;PMS_P2;Temp;Humidity;BMP_temperature;BMP_pressure;BME280_temperature;BME280_humidity;BME280_pressure;Samples;Min_cycle;Max_cycle;Signal;HPM_P1;HPM_P2
2021/01/09 11:06:04;;;;;;;7.22;1.75;;;28.20;53.30;;;;;;5078743;27;20440;-72
2021/01/09 11:08:31;;;;;;;8.45;2.22;;;28.10;54.50;;;;;;5081962;28;20021;-73
2021/01/09 11:10:57;;;;;;;9.73;1.98;;;28.20;54.50;;;;;;5081807;28;20029;-73
2021/01/09 11:13:24;;;;;;;7.72;2.85;;;28.30;54.30;;;;;;5082503;28;20059;-72
2021/01/09 11:15:52;;;;;;;7.65;2.88;;;28.30;54.10;;;;;;5079251;28;20032;-71
2021/01/09 11:18:19;;;;;;;5.85;2.38;;;28.40;53.90;;;;;;5075229;28;20036;-71
2021/01/09 11:20:51;;;;;;;6.50;2.42;;;28.40;53.50;;;;;;5079046;28;20039;-73
2021/01/09 11:23:20;;;;;;;9.25;2.83;;;28.50;53.30;;;;;;5077358;28;20025;-72
2021/01/09 11:25:47;;;;;;;6.20;2.15;;;28.60;53.00;;;;;;5083058;28;20036;-73
2021/01/09 11:28:15;;;;;;;9.68;2.08;;;28.60;52.80;;;;;;5082134;28;20526;-73
2021/01/09 11:30:47;;;;;;;10.40;3.90;;;28.70;52.60;;;;;;5079104;28;20032;-71
2021/01/09 11:33:13;;;;;;;9.25;6.00;;;28.80;52.40;;;;;;5075807;28;20036;-73
2021/01/09 11:35:40;;;;;;;5.38;2.50;;;28.90;52.30;;;;;;5078767;28;20470;-73
2021/01/09 11:38:06;;;;;;;7.28;2.25;;;28.80;52.00;;;;;;5082450;28;20427;-72
2021/01/09 11:40:33;;;;;;;8.73;2.80;;;28.90;52.00;;;;;;5082392;28;20065;-72
2021/01/09 11:43:00;;;;;;;6.65;2.40;;;28.90;52.00;;;;;;5081820;28;20127;-72
2021/01/09 11:45:27;;;;;;;12.32;3.70;;;28.90;51.90;;;;;;5078343;28;20703;-71
2021/01/09 11:47:54;;;;;;;5.03;1.85;;;28.90;51.80;;;;;;5079634;28;20033;-74
2021/01/09 11:50:20;;;;;;;8.13;1.98;;;28.90;51.80;;;;;;5077539;28;20066;-72
2021/01/09 11:52:47;;;;;;;7.00;1.95;;;29.00;51.70;;;;;;5080408;28;20103;-72
2021/01/09 11:55:13;;;;;;;5.60;1.77;;;29.00;51.70;;;;;;5080975;28;20025;-72
2021/01/09 11:57:40;;;;;;;8.25;1.90;;;29.00;51.50;;;;;;5080008;28;20430;-72
2021/01/09 12:00:09;;;;;;;4.78;1.60;;;29.00;51.50;;;;;;5083040;28;20032;-72
2021/01/09 12:02:37;;;;;;;10.68;2.00;;;29.00;51.30;;;;;;5082554;28;20496;-73
2021/01/09 12:05:12;;;;;;;8.57;2.40;;;29.00;51.10;;;;;;5081810;28;20534;-73
2021/01/09 12:07:38;;;;;;;6.88;2.13;;;29.00;51.00;;;;;;5074632;28;20021;-73
2021/01/09 12:10:08;;;;;;;10.68;2.58;;;29.10;49.90;;;;;;5080334;28;20036;-72
2021/01/09 12:12:36;;;;;;;4.70;2.20;;;29.20;49.80;;;;;;5080648;28;20017;-73
2021/01/09 12:15:12;;;;;;;8.82;2.05;;;29.10;49.60;;;;;;5081652;28;20021;-73
2021/01/09 12:17:38;;;;;;;8.35;1.75;;;29.10;49.70;;;;;;5062850;28;20588;-75
2021/01/09 12:20:05;;;;;;;9.00;2.13;;;29.10;49.70;;;;;;5067764;28;20513;-72
2021/01/09 12:22:32;;;;;;;5.47;1.30;;;29.10;49.50;;;;;;5061931;28;20021;-73
2021/01/09 12:24:59;;;;;;;6.65;1.52;;;29.10;49.40;;;;;;5065251;28;20078;-73
2021/01/09 12:27:26;;;;;;;3.60;1.50;;;29.10;49.40;;;;;;5063333;28;20496;-73
2021/01/09 12:29:52;;;;;;;10.52;3.55;;;29.10;49.20;;;;;;5065610;28;20394;-73
2021/01/09 12:32:19;;;;;;;3.67;1.90;;;29.10;49.10;;;;;;5067029;28;20103;-72
2021/01/09 12:34:45;;;;;;;4.18;1.80;;;29.10;49.00;;;;;;5068220;28;20036;-73
2021/01/09 12:37:12;;;;;;;5.65;1.83;;;29.10;48.60;;;;;;5062008;28;20021;-73
2021/01/09 12:39:38;;;;;;;5.30;1.98;;;29.10;48.50;;;;;;5068885;28;20025;-73
2021/01/09 12:42:09;;;;;;;6.28;1.88;;;29.20;48.60;;;;;;5066253;28;20423;-73
2021/01/09 12:44:36;;;;;;;4.82;1.40;;;29.20;48.60;;;;;;5065358;28;20029;-73
2021/01/09 12:47:03;;;;;;;9.77;2.10;;;29.30;48.20;;;;;;5065933;28;20044;-73
2021/01/09 12:49:29;;;;;;;11.38;2.10;;;29.30;48.00;;;;;;5064194;28;20025;-72
2021/01/09 12:51:58;;;;;;;5.53;1.83;;;29.30;47.00;;;;;;5067564;28;20050;-72
2021/01/09 12:54:25;;;;;;;7.22;1.48;;;29.30;47.10;;;;;;5061950;28;20073;-71
2021/01/09 12:56:53;;;;;;;5.88;1.80;;;29.30;47.10;;;;;;5066675;28;20025;-73
2021/01/09 12:59:20;;;;;;;2.92;1.30;;;29.30;47.10;;;;;;5065187;28;20159;-73
2021/01/09 13:01:49;;;;;;;4.13;1.52;;;29.30;46.90;;;;;;5067121;28;20557;-73
2021/01/09 13:04:20;;;;;;;4.70;1.63;;;29.30;46.80;;;;;;5066189;28;20047;-72
2021/01/09 13:06:49;;;;;;;4.05;1.77;;;29.30;46.80;;;;;;5065914;28;20487;-72
2021/01/09 13:09:18;;;;;;;5.90;1.35;;;29.30;46.70;;;;;;5066819;28;20039;-72
2021/01/09 13:11:46;;;;;;;3.45;1.23;;;29.30;46.60;;;;;;5066301;28;20028;-73
2021/01/09 13:14:13;;;;;;;4.45;1.52;;;29.20;46.70;;;;;;5066011;28;20527;-72
2021/01/09 13:16:45;;;;;;;4.65;1.33;;;29.20;46.80;;;;;;5063848;28;20438;-72
2021/01/09 13:19:11;;;;;;;4.10;1.17;;;29.30;46.80;;;;;;5061349;28;20551;-73
2021/01/09 13:21:45;;;;;;;5.68;2.22;;;29.30;46.80;;;;;;5059371;28;20502;-72
2021/01/09 13:24:13;;;;;;;4.13;1.55;;;29.30;46.50;;;;;;5067788;28;20487;-73
2021/01/09 13:26:41;;;;;;;4.90;1.85;;;29.30;46.20;;;;;;5064737;28;20031;-72
2021/01/09 13:29:11;;;;;;;3.78;1.33;;;29.30;46.00;;;;;;5062651;28;20107;-73
2021/01/09 13:31:39;;;;;;;4.63;1.75;;;29.30;46.10;;;;;;5065774;28;20012;-72
2021/01/09 13:34:06;;;;;;;4.00;1.48;;;29.30;46.10;;;;;;5064051;28;20032;-72
2021/01/09 13:36:35;;;;;;;4.25;1.38;;;29.30;46.00;;;;;;5067217;28;20021;-72
2021/01/09 13:39:03;;;;;;;3.72;1.30;;;29.20;46.00;;;;;;5063736;28;20039;-73
2021/01/09 13:41:30;;;;;;;4.45;1.45;;;29.20;46.10;;;;;;5065884;28;20026;-73
2021/01/09 13:43:57;;;;;;;6.18;1.63;;;29.20;46.20;;;;;;5062284;28;20036;-73
2021/01/09 13:46:29;;;;;;;21.20;18.50;;;29.20;46.20;;;;;;5060424;28;20021;-73
2021/01/09 13:49:00;;;;;;;11.85;7.13;;;29.30;45.30;;;;;;5065107;28;20028;-73
2021/01/09 13:51:29;;;;;;;8.68;3.28;;;29.20;45.50;;;;;;5064547;28;20199;-72
2021/01/09 13:53:57;;;;;;;6.57;2.47;;;29.10;45.70;;;;;;5061091;28;20379;-72
2021/01/09 13:56:39;;;;;;;7.38;1.98;;;29.10;46.00;;;;;;5063843;28;20084;-73
2021/01/09 13:59:07;;;;;;;9.77;1.92;;;29.00;46.00;;;;;;5063339;28;20024;-74
2021/01/09 14:01:34;;;;;;;5.05;1.40;;;29.10;46.10;;;;;;5063397;28;20029;-72
2021/01/09 14:04:01;;;;;;;7.40;2.20;;;29.00;45.90;;;;;;5063850;28;20253;-72
2021/01/09 14:06:28;;;;;;;5.35;2.13;;;29.00;46.10;;;;;;5064964;28;20548;-72
2021/01/09 14:08:55;;;;;;;7.40;2.40;;;29.00;46.20;;;;;;5062837;28;20028;-72
2021/01/09 14:11:22;;;;;;;9.90;2.47;;;29.10;45.80;;;;;;5062049;28;20032;-72
2021/01/09 14:13:50;;;;;;;7.35;1.55;;;29.10;45.90;;;;;;5062135;28;20085;-72
2021/01/09 14:16:26;;;;;;;5.85;1.52;;;29.10;46.00;;;;;;5063991;28;20016;-72
2021/01/09 14:18:53;;;;;;;2.33;1.30;;;29.00;45.50;;;;;;5065480;28;20048;-72
2021/01/09 14:21:23;;;;;;;6.43;3.40;;;29.10;44.90;;;;;;5059110;28;20016;-72
2021/01/09 14:23:51;;;;;;;198.18;181.63;;;29.00;44.90;;;;;;5066063;28;20047;-72
2021/01/09 14:26:18;;;;;;;324.80;297.05;;;29.00;45.30;;;;;;5063716;28;20467;-72
2021/01/09 14:28:45;;;;;;;368.23;335.23;;;28.90;45.60;;;;;;5065033;28;20039;-73
2021/01/09 14:31:16;;;;;;;329.52;301.98;;;28.90;45.90;;;;;;5064074;28;20035;-71
2021/01/09 14:33:43;;;;;;;291.73;267.80;;;28.90;46.10;;;;;;5066947;28;20100;-72
2021/01/09 14:36:09;;;;;;;229.20;210.18;;;29.00;46.40;;;;;;5065347;28;20116;-71
2021/01/09 14:38:36;;;;;;;175.38;160.35;;;29.00;46.50;;;;;;5065605;28;20021;-74
2021/01/09 14:41:04;;;;;;;94.45;85.97;;;29.00;46.40;;;;;;5065809;28;20056;-71
2021/01/09 14:43:30;;;;;;;95.07;86.45;;;29.10;46.10;;;;;;5076753;28;20032;-72
2021/01/09 14:45:57;;;;;;;102.28;93.15;;;29.10;46.00;;;;;;5064993;28;20036;-73
2021/01/09 14:48:24;;;;;;;103.30;94.43;;;29.20;46.10;;;;;;5064586;28;20357;-72
2021/01/09 14:50:50;;;;;;;87.95;79.82;;;29.20;46.10;;;;;;5065789;28;20035;-72
2021/01/09 14:53:17;;;;;;;69.55;62.05;;;29.20;46.90;;;;;;5062403;28;20074;-71
2021/01/09 14:55:44;;;;;;;52.20;44.78;;;29.20;46.40;;;;;;5064504;28;20470;-71
2021/01/09 14:58:11;;;;;;;47.50;42.05;;;29.20;46.50;;;;;;5059652;28;20070;-71
2021/01/09 15:00:37;;;;;;;47.78;37.70;;;29.20;46.60;;;;;;5064404;28;20024;-70
2021/01/09 15:03:05;;;;;;;36.72;32.75;;;29.20;46.70;;;;;;5065818;28;20040;-71
2021/01/09 15:05:33;;;;;;;39.35;34.22;;;29.20;46.50;;;;;;5062507;28;20051;-71
2021/01/09 15:08:03;;;;;;;54.55;46.53;;;29.10;46.20;;;;;;5060463;28;20025;-71
2021/01/09 15:10:29;;;;;;;51.20;46.03;;;29.10;46.00;;;;;;5061278;28;20386;-69
2021/01/09 15:12:56;;;;;;;43.42;38.65;;;29.10;45.90;;;;;;5061219;28;20078;-71
2021/01/09 15:15:22;;;;;;;47.97;39.53;;;29.20;45.90;;;;;;5061475;28;20048;-70
2021/01/09 15:17:50;;;;;;;37.65;33.60;;;29.20;45.70;;;;;;5060197;28;20037;-72
2021/01/09 15:20:16;;;;;;;38.00;33.97;;;29.10;45.60;;;;;;5065165;28;20499;-71
2021/01/09 15:22:43;;;;;;;51.30;44.78;;;29.10;45.50;;;;;;5062196;28;21069;-71
2021/01/09 15:25:10;;;;;;;83.05;74.38;;;29.20;45.40;;;;;;5064511;28;20068;-71
2021/01/09 15:27:36;;;;;;;74.15;66.07;;;29.20;45.20;;;;;;5062710;28;20025;-70
2021/01/09 15:30:04;;;;;;;198.15;179.00;;;29.20;45.00;;;;;;5065481;28;20535;-71
2021/01/09 15:32:30;;;;;;;116.43;104.35;;;29.20;44.80;;;;;;5066642;28;20020;-72
2021/01/09 15:34:57;;;;;;;78.60;70.68;;;29.20;44.60;;;;;;5065109;28;20024;-71
2021/01/09 15:37:23;;;;;;;63.92;57.13;;;29.30;43.90;;;;;;5067372;28;20099;-70
2021/01/09 15:39:50;;;;;;;69.65;62.80;;;29.30;43.30;;;;;;5061551;28;20021;-71
2021/01/09 15:42:16;;;;;;;85.50;76.88;;;29.40;42.40;;;;;;5064973;28;20025;-72
2021/01/09 15:44:43;;;;;;;45.08;40.45;;;29.50;42.40;;;;;;5059217;28;20048;-73
2021/01/09 15:47:09;;;;;;;28.85;25.73;;;29.50;41.70;;;;;;5061903;28;20020;-74
2021/01/09 15:49:36;;;;;;;34.97;27.52;;;29.50;40.90;;;;;;5061297;28;20024;-69
2021/01/09 15:52:04;;;;;;;15.63;13.73;;;29.60;40.50;;;;;;5068302;28;20676;-71
2021/01/09 15:54:30;;;;;;;12.85;10.50;;;29.60;40.50;;;;;;5084933;28;20024;-71
2021/01/09 15:56:57;;;;;;;29.15;13.55;;;29.60;39.90;;;;;;5067160;28;20032;-70
2021/01/09 15:59:24;;;;;;;14.68;11.07;;;29.60;40.20;;;;;;5070997;28;20692;-69
2021/01/09 16:01:50;;;;;;;17.50;10.23;;;29.60;40.30;;;;;;5067548;28;20065;-72
2021/01/09 16:04:17;;;;;;;7.05;5.70;;;29.60;40.50;;;;;;5067351;28;20052;-72
2021/01/09 16:06:43;;;;;;;7.75;5.43;;;29.60;40.60;;;;;;5067461;28;20024;-72
2021/01/09 16:09:10;;;;;;;7.32;5.35;;;29.60;40.80;;;;;;5062596;28;20012;-73
2021/01/09 16:11:37;;;;;;;5.45;4.60;;;29.50;40.90;;;;;;5066157;28;20028;-74
2021/01/09 16:14:05;;;;;;;5.25;3.53;;;29.50;41.10;;;;;;5062575;28;20017;-72
2021/01/09 16:16:33;;;;;;;4.78;2.60;;;29.50;41.20;;;;;;5065287;28;20146;-72
2021/01/09 16:19:00;;;;;;;8.13;6.82;;;29.40;41.40;;;;;;5065369;28;20421;-73
2021/01/09 16:21:27;;;;;;;6.07;5.47;;;29.40;41.60;;;;;;5069113;28;20012;-73
2021/01/09 16:23:54;;;;;;;5.90;5.30;;;29.40;41.80;;;;;;5068584;28;20066;-73
2021/01/09 16:26:27;;;;;;;5.00;3.85;;;29.30;41.90;;;;;;5065755;28;20086;-74
2021/01/09 16:28:59;;;;;;;3.08;2.17;;;29.30;42.00;;;;;;5064091;28;20115;-74
2021/01/09 16:31:44;;;;;;;4.65;2.58;;;29.30;42.10;;;;;;5062943;28;20031;-72
2021/01/09 16:34:15;;;;;;;5.70;3.22;;;29.20;42.10;;;;;;5065994;28;20028;-69
2021/01/09 16:36:44;;;;;;;5.30;2.67;;;29.20;42.30;;;;;;5067126;28;20028;-70
2021/01/09 16:39:11;;;;;;;5.95;2.33;;;29.20;42.50;;;;;;5066030;28;20028;-71
2021/01/09 16:41:40;;;;;;;8.35;2.40;;;29.20;42.70;;;;;;5067938;28;20028;-70
2021/01/09 16:44:07;;;;;;;1.83;1.48;;;29.20;42.80;;;;;;5065287;28;20081;-69
2021/01/09 16:46:34;;;;;;;3.97;1.73;;;29.10;42.80;;;;;;5066579;28;20024;-69
2021/01/09 16:49:00;;;;;;;5.45;4.30;;;29.10;43.00;;;;;;5066653;28;20016;-72
2021/01/09 16:51:28;;;;;;;3.65;1.92;;;29.10;43.10;;;;;;5067889;28;20066;-70
2021/01/09 16:53:55;;;;;;;10.73;6.45;;;29.10;43.30;;;;;;5065009;28;20033;-70
2021/01/09 16:56:23;;;;;;;22.80;18.83;;;29.10;43.40;;;;;;5066246;28;20107;-72
2021/01/09 16:58:50;;;;;;;24.60;22.23;;;29.00;43.40;;;;;;5065917;28;20044;-71
2021/01/09 17:01:16;;;;;;;22.58;20.15;;;29.00;43.50;;;;;;5068628;28;20048;-72
2021/01/09 17:03:43;;;;;;;25.75;23.10;;;29.00;43.40;;;;;;5065118;28;20031;-72
2021/01/09 17:06:10;;;;;;;16.35;14.63;;;28.90;43.40;;;;;;5065427;28;20032;-77
2021/01/09 17:08:39;;;;;;;16.13;14.55;;;28.90;43.60;;;;;;5063577;28;20093;-68
2021/01/09 17:11:06;;;;;;;11.07;9.98;;;28.80;43.60;;;;;;5062649;28;20035;-68
2021/01/09 17:13:33;;;;;;;7.13;6.13;;;28.80;43.80;;;;;;5059788;28;20017;-69
2021/01/09 17:15:59;;;;;;;6.45;5.03;;;28.70;43.90;;;;;;5064381;28;20475;-68
2021/01/09 17:18:26;;;;;;;4.95;3.83;;;28.70;44.10;;;;;;5066085;28;20031;-68
2021/01/09 17:20:52;;;;;;;4.13;2.95;;;28.60;44.30;;;;;;5062837;28;20057;-68
2021/01/09 17:23:19;;;;;;;12.60;5.88;;;28.60;44.50;;;;;;5067545;28;20021;-68
2021/01/09 17:25:48;;;;;;;6.57;2.85;;;28.60;44.70;;;;;;5065031;28;20031;-70
2021/01/09 17:28:16;;;;;;;6.72;4.43;;;28.60;44.90;;;;;;5064701;28;20043;-68
2021/01/09 17:30:45;;;;;;;7.55;5.35;;;28.50;45.10;;;;;;5063942;28;20440;-69
2021/01/09 17:33:13;;;;;;;9.07;4.25;;;28.50;45.40;;;;;;5061575;28;20020;-68
2021/01/09 17:35:40;;;;;;;4.47;3.83;;;28.50;45.70;;;;;;5068000;28;20013;-67
2021/01/09 17:38:06;;;;;;;5.78;3.30;;;28.40;46.00;;;;;;5066783;28;20028;-67
2021/01/09 17:40:33;;;;;;;4.38;2.70;;;28.40;46.30;;;;;;5063083;28;20024;-69
2021/01/09 17:43:01;;;;;;;4.55;2.55;;;28.40;46.50;;;;;;5065812;28;20020;-70
2021/01/09 17:45:27;;;;;;;8.00;5.50;;;28.30;46.70;;;;;;5063549;28;20033;-67
2021/01/09 17:47:54;;;;;;;10.77;5.55;;;28.30;47.00;;;;;;5059116;28;20025;-67
2021/01/09 17:50:21;;;;;;;10.05;5.40;;;28.20;47.20;;;;;;5065255;28;20060;-68
2021/01/09 17:52:48;;;;;;;5.25;3.95;;;28.20;47.50;;;;;;5062922;28;20017;-67
2021/01/09 17:55:14;;;;;;;7.10;4.40;;;28.10;47.60;;;;;;5064895;28;20025;-68
2021/01/09 17:57:41;;;;;;;7.85;4.35;;;28.10;47.80;;;;;;5064298;28;20028;-69
2021/01/09 18:00:08;;;;;;;6.60;4.47;;;28.10;48.00;;;;;;5063230;28;20376;-67
2021/01/09 18:02:36;;;;;;;4.13;2.20;;;28.00;48.10;;;;;;5063358;28;20106;-70
2021/01/09 18:05:03;;;;;;;7.80;2.45;;;28.00;48.30;;;;;;5061819;28;20052;-68
2021/01/09 18:08:09;;;;;;;6.00;3.10;;;28.00;48.50;;;;;;5063795;28;20024;-69
2021/01/09 18:11:15;;;;;;;9.43;5.93;;;27.90;48.50;;;;;;5061754;28;20075;-69
2021/01/09 18:14:21;;;;;;;12.55;9.45;;;27.90;48.70;;;;;;5058222;28;20025;-69
2021/01/09 18:17:28;;;;;;;13.68;10.27;;;27.80;48.70;;;;;;5055696;28;20036;-69
2021/01/09 18:20:23;;;;;;;10.88;9.77;;;27.80;48.90;;;;;;5059408;28;20029;-68
2021/01/09 18:22:49;;;;;;;11.85;7.05;;;27.80;49.10;;;;;;5063314;28;20033;-69
2021/01/09 18:25:15;;;;;;;8.10;4.75;;;27.70;49.10;;;;;;5061416;28;20043;-70
2021/01/09 18:27:42;;;;;;;8.00;3.10;;;27.70;49.20;;;;;;5061003;28;20023;-68
2021/01/09 18:30:09;;;;;;;5.68;2.90;;;27.70;49.10;;;;;;5062899;28;20109;-68
2021/01/09 18:32:36;;;;;;;4.18;2.30;;;27.70;49.30;;;;;;5062904;28;20476;-69
2021/01/09 18:35:03;;;;;;;6.72;2.53;;;27.70;49.30;;;;;;5063907;28;20004;-70
2021/01/09 18:37:30;;;;;;;3.20;1.80;;;27.70;49.30;;;;;;5063160;28;20032;-69
2021/01/09 18:39:56;;;;;;;5.32;2.65;;;27.70;49.30;;;;;;5062208;28;20017;-72
2021/01/09 18:42:23;;;;;;;6.57;2.95;;;27.60;49.30;;;;;;5064367;28;20103;-69
2021/01/09 18:44:49;;;;;;;5.75;3.05;;;27.60;49.40;;;;;;5064444;28;20048;-68
2021/01/09 18:47:16;;;;;;;2.72;2.20;;;27.60;50.20;;;;;;5060736;28;20062;-70
2021/01/09 18:49:43;;;;;;;3.03;1.63;;;27.60;49.60;;;;;;5063691;28;20062;-70
2021/01/09 18:52:10;;;;;;;4.55;2.22;;;27.50;49.60;;;;;;5063208;28;20025;-71
2021/01/09 18:54:38;;;;;;;3.65;3.33;;;27.50;49.70;;;;;;5063645;28;20103;-70
2021/01/09 18:57:04;;;;;;;5.15;4.35;;;27.50;49.80;;;;;;5062942;28;20029;-71
2021/01/09 18:59:31;;;;;;;7.60;3.95;;;27.40;49.90;;;;;;5063906;28;20021;-72
2021/01/09 19:01:57;;;;;;;5.35;3.67;;;27.40;50.00;;;;;;5066484;28;20021;-73
2021/01/09 19:04:24;;;;;;;5.20;2.55;;;27.40;50.10;;;;;;5059125;28;20481;-71
2021/01/09 19:06:50;;;;;;;3.75;2.08;;;27.30;50.10;;;;;;5062744;28;20480;-71
2021/01/09 19:09:17;;;;;;;4.68;2.70;;;27.40;50.30;;;;;;5064637;28;20099;-73
2021/01/09 19:11:44;;;;;;;4.20;2.15;;;27.30;50.50;;;;;;5059865;28;20028;-72
2021/01/09 19:14:10;;;;;;;5.95;2.97;;;27.30;50.60;;;;;;5064691;28;20029;-72
2021/01/09 19:16:37;;;;;;;4.68;1.83;;;27.20;50.60;;;;;;5059747;28;20383;-73
2021/01/09 19:19:05;;;;;;;5.30;2.03;;;27.20;50.70;;;;;;5063806;28;20032;-73
2021/01/09 19:21:31;;;;;;;2.53;2.22;;;27.20;50.90;;;;;;5061931;28;20016;-74
2021/01/09 19:23:58;;;;;;;5.97;2.72;;;27.20;51.00;;;;;;5058060;28;20116;-74
2021/01/09 19:26:24;;;;;;;7.22;1.85;;;27.20;51.10;;;;;;5064742;28;20024;-71
2021/01/09 19:28:53;;;;;;;4.82;1.70;;;27.20;51.20;;;;;;5065384;28;20040;-72
2021/01/09 19:31:20;;;;;;;7.85;2.28;;;27.10;51.30;;;;;;5069085;28;20029;-73
2021/01/09 19:33:48;;;;;;;2.78;2.10;;;27.10;51.30;;;;;;5065636;28;20021;-72
2021/01/09 19:36:15;;;;;;;6.85;2.30;;;27.10;51.40;;;;;;5069716;28;20387;-72
2021/01/09 19:38:42;;;;;;;5.47;1.98;;;27.00;51.40;;;;;;5064158;28;20016;-72
2021/01/09 19:41:08;;;;;;;4.75;2.75;;;27.10;51.50;;;;;;5067746;28;20028;-70
2021/01/09 19:43:35;;;;;;;4.38;2.22;;;27.10;51.70;;;;;;5068259;28;20383;-71
2021/01/09 19:46:02;;;;;;;6.45;2.80;;;27.00;51.70;;;;;;5065250;28;20512;-69
2021/01/09 19:48:30;;;;;;;5.45;3.35;;;27.00;51.80;;;;;;5064624;28;20028;-70
2021/01/09 19:50:58;;;;;;;7.32;4.13;;;27.00;51.90;;;;;;5064042;28;20104;-71
2021/01/09 19:53:28;;;;;;;5.13;3.00;;;27.00;51.90;;;;;;5065042;28;20021;-71
2021/01/09 19:55:57;;;;;;;4.07;2.53;;;27.00;52.00;;;;;;5063987;28;20327;-71
2021/01/09 19:58:23;;;;;;;3.42;2.10;;;27.00;52.10;;;;;;5064569;28;20017;-72
2021/01/09 20:00:51;;;;;;;8.00;2.83;;;27.00;52.20;;;;;;5066093;28;20035;-72
2021/01/09 20:03:18;;;;;;;4.78;2.67;;;27.00;52.20;;;;;;5066207;28;20016;-72
2021/01/09 20:05:45;;;;;;;3.63;2.42;;;27.00;52.20;;;;;;5062783;28;20053;-72
2021/01/09 20:08:11;;;;;;;6.68;3.30;;;27.00;52.30;;;;;;5063598;28;20038;-72
2021/01/09 20:10:38;;;;;;;5.72;2.20;;;27.00;52.40;;;;;;5064899;28;20455;-72
2021/01/09 20:13:05;;;;;;;3.72;2.03;;;27.00;52.50;;;;;;5064794;28;20024;-71
2021/01/09 20:15:33;;;;;;;5.78;2.10;;;27.00;52.70;;;;;;5065753;28;20028;-72
2021/01/09 20:18:00;;;;;;;5.63;2.40;;;27.00;52.80;;;;;;5064073;28;20531;-71
2021/01/09 20:20:33;;;;;;;8.48;3.40;;;27.00;52.90;;;;;;5066326;28;20909;-72
2021/01/09 20:23:02;;;;;;;7.93;5.72;;;26.90;52.90;;;;;;5064425;28;20009;-72
2021/01/09 20:25:29;;;;;;;7.10;6.45;;;26.90;53.00;;;;;;5064708;28;20028;-72
2021/01/09 20:27:56;;;;;;;7.20;4.80;;;26.90;53.10;;;;;;5063418;28;20029;-72
2021/01/09 20:31:02;;;;;;;9.05;4.10;;;26.90;53.20;;;;;;5059650;28;20379;-72
2021/01/09 20:33:29;;;;;;;7.18;3.97;;;26.90;53.30;;;;;;5064777;28;20110;-71
2021/01/09 20:35:55;;;;;;;6.30;3.60;;;26.90;53.30;;;;;;5066689;28;20052;-72
2021/01/09 20:38:22;;;;;;;6.82;2.72;;;26.90;53.40;;;;;;5064355;28;20012;-72
2021/01/09 20:40:49;;;;;;;9.88;3.08;;;26.90;53.40;;;;;;5066225;28;20086;-71
2021/01/09 20:43:16;;;;;;;5.18;2.95;;;26.90;53.50;;;;;;5064794;28;20040;-72
2021/01/09 20:45:43;;;;;;;4.22;2.45;;;26.90;53.60;;;;;;5065599;28;20040;-71
2021/01/09 20:48:09;;;;;;;9.43;4.80;;;26.90;53.70;;;;;;5064857;28;20086;-72
2021/01/09 20:50:36;;;;;;;9.98;7.15;;;26.90;53.80;;;;;;5065275;28;20419;-72
2021/01/09 20:53:03;;;;;;;6.95;5.57;;;26.90;53.80;;;;;;5065409;28;20664;-72
2021/01/09 20:55:29;;;;;;;8.98;4.22;;;26.90;53.90;;;;;;5061941;28;20464;-72
2021/01/09 20:57:56;;;;;;;7.53;3.42;;;26.80;53.90;;;;;;5064921;28;20024;-72
2021/01/09 21:00:23;;;;;;;5.80;4.28;;;26.80;53.90;;;;;;5062159;28;20048;-72
2021/01/09 21:02:50;;;;;;;5.10;2.83;;;26.80;54.00;;;;;;5064842;28;20036;-72
2021/01/09 21:05:17;;;;;;;4.68;2.67;;;26.80;54.10;;;;;;5064432;28;20048;-72
2021/01/09 21:07:44;;;;;;;6.18;3.25;;;26.80;54.10;;;;;;5064476;28;20040;-72
2021/01/09 21:10:12;;;;;;;8.65;3.42;;;26.80;54.20;;;;;;5065237;28;20103;-72
2021/01/09 21:12:40;;;;;;;6.28;2.20;;;26.70;54.20;;;;;;5062243;28;20024;-72
2021/01/09 21:15:08;;;;;;;5.50;2.55;;;26.80;54.30;;;;;;5062719;28;20034;-72
2021/01/09 21:17:37;;;;;;;5.68;2.58;;;26.80;54.40;;;;;;5063890;28;20730;-72
2021/01/09 21:20:04;;;;;;;6.15;2.50;;;26.70;54.30;;;;;;5063364;28;20049;-72
2021/01/09 21:22:31;;;;;;;6.93;2.60;;;26.70;54.40;;;;;;5063874;28;20864;-72
2021/01/09 21:24:58;;;;;;;4.25;2.33;;;26.70;54.50;;;;;;5063847;28;20391;-72
2021/01/09 21:27:25;;;;;;;3.85;2.15;;;26.70;54.60;;;;;;5064860;28;20027;-72
2021/01/09 21:29:51;;;;;;;7.00;3.40;;;26.60;54.60;;;;;;5064479;28;20016;-72
2021/01/09 21:32:18;;;;;;;3.50;2.28;;;26.60;54.70;;;;;;5065100;28;20021;-72
2021/01/09 21:34:44;;;;;;;6.45;2.60;;;26.60;54.80;;;;;;5063448;28;20372;-72
2021/01/09 21:37:11;;;;;;;7.05;3.42;;;26.60;54.90;;;;;;5065547;28;20012;-72
2021/01/09 21:39:38;;;;;;;6.32;2.10;;;26.60;54.90;;;;;;5063796;28;20024;-72
2021/01/09 21:42:06;;;;;;;3.78;2.58;;;26.50;54.90;;;;;;5063766;28;20032;-72
2021/01/09 21:44:35;;;;;;;3.60;2.30;;;26.50;55.00;;;;;;5064997;28;20032;-72
2021/01/09 21:47:02;;;;;;;9.25;3.25;;;26.50;55.10;;;;;;5064394;28;20028;-72
2021/01/09 21:49:29;;;;;;;7.43;3.03;;;26.40;55.10;;;;;;5061828;28;20064;-72
2021/01/09 21:51:59;;;;;;;5.53;2.63;;;26.40;55.20;;;;;;5062523;28;20032;-72
2021/01/09 21:54:27;;;;;;;7.50;2.55;;;26.40;55.30;;;;;;5064343;28;20025;-72
2021/01/09 21:56:54;;;;;;;8.23;2.50;;;26.40;55.40;;;;;;5064380;28;20028;-71
2021/01/09 21:59:21;;;;;;;4.00;2.15;;;26.40;55.50;;;;;;5063519;28;20027;-72
2021/01/09 22:01:51;;;;;;;5.40;2.22;;;26.40;55.60;;;;;;5060396;28;20387;-72
2021/01/09 22:04:18;;;;;;;5.10;1.98;;;26.30;55.60;;;;;;5063135;28;20095;-72
2021/01/09 22:06:46;;;;;;;5.45;2.08;;;26.30;55.60;;;;;;5066224;28;20112;-71
2021/01/09 22:09:12;;;;;;;5.43;2.22;;;26.30;55.70;;;;;;5063751;28;20024;-71
2021/01/09 22:11:43;;;;;;;6.00;2.28;;;26.30;55.80;;;;;;5062278;28;20463;-72
2021/01/09 22:14:11;;;;;;;5.40;1.70;;;26.30;55.80;;;;;;5063727;28;20375;-71
2021/01/09 22:16:40;;;;;;;2.47;1.80;;;26.30;56.00;;;;;;5065706;28;20107;-72
2021/01/09 22:19:07;;;;;;;3.15;1.55;;;26.30;56.50;;;;;;5063354;28;20421;-71
2021/01/09 22:21:39;;;;;;;2.03;1.20;;;26.30;57.20;;;;;;5063565;28;20490;-71
2021/01/09 22:24:09;;;;;;;5.03;1.50;;;26.30;57.90;;;;;;5062647;28;20034;-71
2021/01/09 22:26:37;;;;;;;3.10;1.08;;;26.20;58.50;;;;;;5063034;28;20039;-72
2021/01/09 22:29:05;;;;;;;1.63;1.00;;;26.20;59.30;;;;;;5063977;28;20056;-71
2021/01/09 22:31:45;;;;;;;1.98;0.80;;;26.20;59.70;;;;;;5063208;28;20131;-72
2021/01/09 22:34:14;;;;;;;3.88;1.55;;;26.20;60.10;;;;;;5061290;28;20475;-71
2021/01/09 22:36:43;;;;;;;3.22;1.23;;;26.20;60.70;;;;;;5064228;28;20029;-71
2021/01/09 22:39:10;;;;;;;4.57;1.25;;;26.10;61.20;;;;;;5062243;28;20024;-72
2021/01/09 22:41:37;;;;;;;1.90;1.25;;;26.10;61.70;;;;;;5063818;28;20069;-72
2021/01/09 22:44:05;;;;;;;3.63;1.42;;;26.10;62.00;;;;;;5061845;28;20156;-72
2021/01/09 22:46:35;;;;;;;4.95;1.55;;;26.00;61.90;;;;;;5063070;28;20021;-72
2021/01/09 22:49:02;;;;;;;5.88;1.88;;;26.00;61.90;;;;;;5062247;28;20020;-72
2021/01/09 22:51:28;;;;;;;2.95;1.65;;;26.00;61.80;;;;;;5063778;28;20032;-73
2021/01/09 22:53:55;;;;;;;5.28;1.98;;;26.00;61.60;;;;;;5063711;28;20025;-72
2021/01/09 22:56:22;;;;;;;4.28;2.22;;;25.90;61.60;;;;;;5060993;28;20028;-72
2021/01/09 22:58:48;;;;;;;5.10;2.05;;;25.90;61.40;;;;;;5063754;28;20013;-72
2021/01/09 23:01:15;;;;;;;4.03;1.67;;;25.90;61.30;;;;;;5061580;28;20032;-72
2021/01/09 23:03:42;;;;;;;6.25;2.35;;;25.90;61.10;;;;;;5063060;28;20023;-71
2021/01/09 23:06:09;;;;;;;6.75;2.10;;;25.90;61.00;;;;;;5060326;28;20051;-72
2021/01/09 23:08:36;;;;;;;9.30;2.53;;;25.80;60.90;;;;;;5065316;28;20035;-71
2021/01/09 23:11:42;;;;;;;4.18;2.20;;;25.80;60.90;;;;;;5063144;28;20016;-72
2021/01/09 23:14:48;;;;;;;9.18;2.60;;;25.80;60.90;;;;;;5064950;28;20532;-72
2021/01/09 23:17:55;;;;;;;5.28;2.30;;;25.80;61.00;;;;;;5062665;28;20119;-72
2021/01/09 23:21:01;;;;;;;7.32;2.88;;;25.80;60.90;;;;;;5062073;28;20032;-72
2021/01/09 23:24:07;;;;;;;11.35;4.07;;;25.80;60.80;;;;;;5060669;28;20425;-72
2021/01/09 23:27:14;;;;;;;10.55;3.50;;;25.70;60.60;;;;;;5063386;28;20025;-72
2021/01/09 23:30:22;;;;;;;11.48;3.25;;;25.70;61.20;;;;;;5058989;28;20030;-72
2021/01/09 23:33:28;;;;;;;5.95;2.70;;;25.70;60.50;;;;;;5062529;28;20021;-72
2021/01/09 23:36:14;;;;;;;;;;;25.70;60.40;;;;;;5063169;28;20028;-71
2021/01/09 23:39:20;;;;;;;10.60;3.28;;;25.70;60.40;;;;;;5062008;28;19908;-72
2021/01/09 23:42:26;;;;;;;18.05;4.07;;;25.60;60.00;;;;;;5063196;28;20030;-72
2021/01/09 23:45:33;;;;;;;11.75;3.00;;;25.60;59.80;;;;;;5059902;28;20036;-71
2021/01/09 23:48:39;;;;;;;13.50;4.45;;;25.60;59.60;;;;;;5056496;28;20651;-71
2021/01/09 23:51:05;;;;;;;10.82;3.58;;;25.60;59.50;;;;;;5062343;28;20099;-72
2021/01/09 23:53:33;;;;;;;12.27;3.28;;;25.50;59.30;;;;;;5058403;28;20049;-71
2021/01/09 23:56:00;;;;;;;14.52;4.10;;;25.50;59.20;;;;;;5061871;28;20036;-72
2021/01/09 23:58:26;;;;;;;15.43;4.25;;;25.50;59.20;;;;;;5060445;28;20024;-72
